Time;durP1;ratioP1;P1;durP2;ratioP2;P2;SDS_P1;SDS_P2;PMS_P1;PMS_P2;Temp;Humidity;BMP_temperature;BMP_pressure;BME280_temperature;BME280_humidity;BME280_pressure;Samples;Min_cycle;Max_cycle;Signal;HPM_P1;HPM_P2
2022/06/08 00:01:09;;;;;;;2.17;1.23;;;15.70;96.70;;;;;;5075396;28;20523;-65
2022/06/08 00:03:42;;;;;;;1.73;0.90;;;15.60;96.80;;;;;;5074149;28;20436;-65
2022/06/08 00:06:09;;;;;;;2.30;1.20;;;15.70;97.00;;;;;;5055092;28;20927;-64
2022/06/08 00:08:36;;;;;;;2.00;1.00;;;15.70;96.70;;;;;;5056007;28;20436;-65
2022/06/08 00:11:05;;;;;;;3.83;1.43;;;15.80;96.80;;;;;;5055117;28;20444;-65
2022/06/08 00:13:33;;;;;;;1.90;0.90;;;15.80;96.50;;;;;;5072062;28;20479;-65
2022/06/08 00:16:01;;;;;;;2.40;1.20;;;15.80;96.40;;;;;;5075143;28;20451;-66
2022/06/08 00:18:28;;;;;;;2.67;0.87;;;15.90;96.40;;;;;;5057865;28;20498;-68
2022/06/08 00:20:56;;;;;;;2.37;1.20;;;15.90;96.40;;;;;;5074820;28;20796;-64
2022/06/08 00:23:23;;;;;;;2.60;1.20;;;15.90;95.90;;;;;;5059207;28;20445;-65
2022/06/08 00:25:50;;;;;;;2.53;1.03;;;16.00;95.40;;;;;;5055004;28;20931;-65
2022/06/08 00:28:18;;;;;;;3.40;1.17;;;15.90;94.90;;;;;;5068248;28;20520;-65
2022/06/08 00:30:46;;;;;;;2.70;1.30;;;16.00;94.90;;;;;;5056107;28;20441;-64
2022/06/08 00:33:13;;;;;;;1.90;1.00;;;16.00;94.70;;;;;;5067032;28;21021;-65
2022/06/08 00:35:41;;;;;;;2.07;1.10;;;16.00;94.40;;;;;;5074724;28;20948;-65
2022/06/08 00:38:08;;;;;;;6.50;1.33;;;15.90;94.30;;;;;;5062111;28;20488;-64
2022/06/08 00:40:48;;;;;;;2.33;1.10;;;15.90;94.30;;;;;;5070951;28;20486;-65
2022/06/08 00:43:16;;;;;;;3.00;1.10;;;15.90;94.30;;;;;;5062192;28;20448;-65
2022/06/08 00:45:46;;;;;;;1.67;0.80;;;15.90;94.40;;;;;;5054339;28;20445;-65
2022/06/08 00:48:14;;;;;;;5.10;1.50;;;15.90;94.20;;;;;;5065304;28;20444;-65
2022/06/08 00:50:43;;;;;;;3.40;1.40;;;15.90;94.30;;;;;;5056940;28;20444;-65
2022/06/08 00:53:16;;;;;;;2.20;1.40;;;16.00;94.60;;;;;;5064026;28;20476;-65
2022/06/08 00:55:44;;;;;;;4.60;1.10;;;16.00;94.60;;;;;;5074428;28;21250;-65
2022/06/08 00:58:16;;;;;;;2.60;1.40;;;16.00;94.60;;;;;;5063976;28;20437;-65
2022/06/08 01:00:44;;;;;;;2.10;1.03;;;15.90;93.40;;;;;;5070824;28;20482;-65
2022/06/08 01:03:14;;;;;;;2.13;1.27;;;15.80;93.20;;;;;;5064230;28;20523;-65
2022/06/08 01:05:44;;;;;;;3.10;1.20;;;15.80;93.90;;;;;;5053668;28;20445;-65
2022/06/08 01:08:21;;;;;;;2.50;1.40;;;15.80;94.50;;;;;;5061120;28;20519;-64
2022/06/08 01:10:51;;;;;;;2.27;0.90;;;15.80;94.90;;;;;;5056274;28;20445;-65
2022/06/08 01:13:18;;;;;;;2.00;1.00;;;15.80;94.50;;;;;;5062584;28;20476;-64
2022/06/08 01:15:47;;;;;;;3.40;0.97;;;15.80;94.50;;;;;;5073478;28;20446;-65
2022/06/08 01:18:15;;;;;;;1.90;1.03;;;15.80;94.40;;;;;;5065260;28;20481;-64
2022/06/08 01:20:47;;;;;;;1.80;1.30;;;15.70;94.10;;;;;;5069649;28;20441;-65
2022/06/08 01:23:16;;;;;;;3.50;1.10;;;15.60;94.40;;;;;;5066487;28;21265;-65
2022/06/08 01:25:56;;;;;;;3.20;1.33;;;15.60;94.40;;;;;;5053554;28;20441;-65
2022/06/08 01:28:33;;;;;;;5.43;1.00;;;15.60;94.50;;;;;;5061127;28;20444;-65
2022/06/08 01:31:12;;;;;;;2.03;1.20;;;15.60;94.50;;;;;;5071648;28;20497;-65
2022/06/08 01:34:00;;;;;;;2.10;1.13;;;15.60;94.60;;;;;;5063888;28;20499;-65
2022/06/08 01:36:45;;;;;;;2.20;1.10;;;15.50;94.70;;;;;;5053606;28;20488;-65
2022/06/08 01:39:25;;;;;;;2.10;1.00;;;15.50;94.60;;;;;;5062332;28;20442;-65
2022/06/08 01:42:13;;;;;;;3.70;1.40;;;15.50;94.70;;;;;;5053688;28;20449;-65
2022/06/08 01:48:02;;;;;;;4.27;1.73;;;15.50;94.50;;;;;;5073228;28;20893;-65
2022/06/08 01:50:40;;;;;;;3.00;1.20;;;15.50;94.80;;;;;;5066865;28;20451;-65
2022/06/08 01:53:16;;;;;;;2.37;1.27;;;15.40;94.80;;;;;;5071007;28;20567;-65
2022/06/08 01:55:50;;;;;;;2.03;1.00;;;15.40;95.10;;;;;;5061849;28;20464;-65
2022/06/08 01:58:26;;;;;;;4.80;1.10;;;15.30;94.90;;;;;;5073125;28;20440;-65
2022/06/08 02:01:01;;;;;;;1.90;1.00;;;15.30;94.80;;;;;;5072288;28;20447;-65
2022/06/08 02:03:32;;;;;;;1.80;1.20;;;15.20;94.70;;;;;;5072832;28;21192;-65
2022/06/08 02:06:07;;;;;;;1.90;1.00;;;15.10;94.30;;;;;;5055401;28;20870;-65
2022/06/08 02:08:39;;;;;;;2.00;1.00;;;15.00;94.40;;;;;;5052807;28;20994;-65
2022/06/08 02:11:17;;;;;;;2.20;1.00;;;15.00;94.60;;;;;;5071080;28;20444;-65
2022/06/08 02:13:54;;;;;;;2.53;1.40;;;15.00;95.00;;;;;;5072787;28;20533;-64
2022/06/08 02:16:28;;;;;;;3.00;1.50;;;15.00;95.40;;;;;;5052654;28;20524;-65
2022/06/08 02:19:00;;;;;;;3.07;1.27;;;14.90;95.80;;;;;;5052191;28;20459;-66
2022/06/08 02:21:34;;;;;;;3.93;1.17;;;14.80;96.20;;;;;;5071970;28;20489;-64
2022/06/08 02:24:06;;;;;;;4.37;1.47;;;14.80;96.70;;;;;;5052675;28;20445;-65
2022/06/08 02:26:40;;;;;;;2.30;1.40;;;14.80;96.60;;;;;;5068803;28;20990;-64
2022/06/08 02:29:13;;;;;;;6.80;1.50;;;14.80;96.70;;;;;;5071788;28;20475;-65
2022/06/08 02:31:45;;;;;;;2.33;1.10;;;14.80;96.80;;;;;;5063953;28;20448;-65
2022/06/08 02:34:31;;;;;;;3.77;1.60;;;14.80;96.60;;;;;;5071302;28;21042;-64
2022/06/08 02:37:06;;;;;;;3.80;1.10;;;14.70;96.50;;;;;;5052355;28;20437;-65
2022/06/08 02:39:39;;;;;;;5.67;3.17;;;14.80;96.70;;;;;;5054884;28;20436;-64
2022/06/08 02:42:13;;;;;;;3.00;1.70;;;14.80;96.60;;;;;;5057701;28;20495;-65
2022/06/08 02:44:42;;;;;;;2.60;1.40;;;14.90;96.20;;;;;;5068803;28;20459;-64
2022/06/08 02:47:16;;;;;;;5.50;1.60;;;14.80;96.10;;;;;;5072526;28;20526;-64
2022/06/08 02:49:43;;;;;;;2.77;1.10;;;14.80;96.40;;;;;;5054946;28;20447;-64
2022/06/08 02:52:20;;;;;;;2.97;1.73;;;14.90;96.20;;;;;;5066660;28;20443;-64
2022/06/08 02:54:47;;;;;;;2.60;1.70;;;14.90;96.40;;;;;;5072252;28;21055;-64
2022/06/08 02:57:25;;;;;;;2.30;1.03;;;14.80;96.40;;;;;;5057431;28;20481;-65
2022/06/08 02:59:57;;;;;;;6.90;1.63;;;14.80;96.50;;;;;;5052346;28;20519;-65
2022/06/08 03:02:32;;;;;;;2.40;1.37;;;14.70;96.80;;;;;;5068195;28;20440;-66
2022/06/08 03:05:08;;;;;;;8.03;1.33;;;14.70;96.90;;;;;;5072473;28;20592;-65
2022/06/08 03:07:39;;;;;;;4.20;1.50;;;14.70;97.00;;;;;;5054497;28;20980;-64
2022/06/08 03:10:09;;;;;;;4.67;2.97;;;14.80;97.10;;;;;;5052340;28;20433;-65
2022/06/08 03:12:39;;;;;;;9.37;2.80;;;14.80;97.10;;;;;;5069801;28;20515;-64
2022/06/08 03:15:09;;;;;;;4.10;3.07;;;14.80;97.00;;;;;;5072075;28;20778;-64
2022/06/08 03:17:38;;;;;;;4.27;2.77;;;14.80;97.00;;;;;;5054496;28;20433;-64
2022/06/08 03:20:09;;;;;;;2.67;1.83;;;14.80;97.00;;;;;;5062883;28;20440;-65
2022/06/08 03:22:38;;;;;;;3.50;2.10;;;14.80;97.20;;;;;;5054242;28;20448;-64
2022/06/08 03:25:06;;;;;;;5.53;1.87;;;14.70;97.70;;;;;;5062484;28;20444;-65
2022/06/08 03:27:35;;;;;;;3.97;1.83;;;14.70;97.50;;;;;;5072016;28;20440;-65
2022/06/08 03:30:05;;;;;;;2.50;1.57;;;14.80;97.60;;;;;;5061703;28;20500;-64
2022/06/08 03:32:32;;;;;;;7.83;2.17;;;14.80;97.80;;;;;;5072080;28;20481;-65
2022/06/08 03:34:59;;;;;;;5.13;2.27;;;14.80;97.60;;;;;;5066141;28;20487;-64
2022/06/08 03:37:26;;;;;;;4.17;1.87;;;14.80;97.90;;;;;;5055702;28;20451;-66
2022/06/08 03:39:53;;;;;;;5.47;2.17;;;14.80;98.00;;;;;;5063134;28;20851;-65
2022/06/08 03:42:20;;;;;;;4.03;2.60;;;14.80;98.00;;;;;;5060622;28;20440;-65
2022/06/08 03:44:48;;;;;;;3.80;2.00;;;14.80;98.00;;;;;;5061509;28;20439;-65
2022/06/08 03:47:20;;;;;;;3.17;1.50;;;14.90;98.10;;;;;;5075775;28;20439;-68
2022/06/08 03:49:48;;;;;;;3.13;1.60;;;15.00;98.10;;;;;;5069150;28;20514;-64
2022/06/08 03:52:19;;;;;;;3.37;1.50;;;15.00;98.10;;;;;;5068885;28;20796;-64
2022/06/08 03:54:49;;;;;;;2.37;1.20;;;15.00;98.10;;;;;;5069784;28;20583;-65
2022/06/08 03:57:19;;;;;;;3.43;1.73;;;15.10;98.10;;;;;;5055454;28;20449;-66
2022/06/08 03:59:49;;;;;;;2.17;1.40;;;15.10;98.10;;;;;;5071996;28;20440;-65
2022/06/08 04:02:18;;;;;;;8.90;1.20;;;15.20;98.00;;;;;;5071440;28;20456;-64
2022/06/08 04:04:46;;;;;;;6.80;1.53;;;15.30;98.10;;;;;;5055277;28;20523;-65
2022/06/08 04:07:13;;;;;;;3.87;1.67;;;15.30;98.10;;;;;;5057329;28;20446;-65
2022/06/08 04:09:40;;;;;;;2.13;1.30;;;15.40;98.00;;;;;;5075463;28;20439;-66
2022/06/08 04:12:08;;;;;;;5.03;1.63;;;15.40;98.00;;;;;;5073824;28;20444;-64
2022/06/08 04:14:36;;;;;;;3.40;1.33;;;15.50;98.10;;;;;;5055425;28;20480;-64
2022/06/08 04:17:03;;;;;;;2.30;1.30;;;15.50;98.10;;;;;;5054841;28;20444;-65
2022/06/08 04:19:32;;;;;;;7.57;1.57;;;15.60;98.10;;;;;;5055264;28;20492;-65
2022/06/08 04:21:59;;;;;;;2.20;1.30;;;15.60;97.80;;;;;;5055160;28;20473;-65
2022/06/08 04:24:27;;;;;;;2.67;1.30;;;15.60;97.90;;;;;;5055173;28;20463;-64
2022/06/08 04:26:56;;;;;;;3.30;1.43;;;15.60;97.70;;;;;;5055156;28;20475;-65
2022/06/08 04:29:23;;;;;;;4.37;1.47;;;15.70;97.40;;;;;;5073272;28;20446;-65
2022/06/08 04:31:50;;;;;;;3.00;1.33;;;15.70;97.40;;;;;;5074574;28;20520;-65
2022/06/08 04:34:17;;;;;;;2.10;1.23;;;15.80;97.50;;;;;;5055643;28;20611;-65
2022/06/08 04:36:47;;;;;;;2.73;1.40;;;15.80;97.30;;;;;;5054633;28;20441;-66
2022/06/08 04:39:16;;;;;;;3.20;1.63;;;15.90;97.30;;;;;;5071934;28;20439;-64
2022/06/08 04:41:43;;;;;;;2.97;1.70;;;15.90;97.30;;;;;;5074524;28;20523;-65
2022/06/08 04:44:12;;;;;;;3.07;1.90;;;15.90;97.00;;;;;;5056864;28;20483;-65
2022/06/08 04:46:40;;;;;;;3.03;2.10;;;15.90;96.80;;;;;;5054608;28;20456;-65
2022/06/08 04:49:08;;;;;;;3.70;2.10;;;16.00;96.90;;;;;;5070285;28;20773;-65
2022/06/08 04:51:36;;;;;;;7.00;2.30;;;16.00;96.70;;;;;;5072753;28;20439;-66
2022/06/08 04:54:05;;;;;;;7.90;2.50;;;16.00;96.70;;;;;;5074149;28;21051;-65
2022/06/08 04:56:32;;;;;;;3.47;2.17;;;16.00;96.60;;;;;;5072853;28;20933;-65
2022/06/08 04:59:01;;;;;;;3.97;2.53;;;16.00;96.90;;;;;;5054406;28;20477;-65
2022/06/08 05:01:28;;;;;;;4.50;2.00;;;16.00;97.30;;;;;;5054000;28;20444;-66
2022/06/08 05:03:55;;;;;;;3.37;1.80;;;16.10;97.50;;;;;;5053989;28;20469;-66
2022/06/08 05:06:22;;;;;;;4.33;1.77;;;16.20;97.20;;;;;;5054402;28;20927;-65
2022/06/08 05:08:49;;;;;;;3.67;1.50;;;16.30;97.00;;;;;;5072718;28;20877;-64
2022/06/08 05:11:18;;;;;;;3.00;1.10;;;16.30;96.90;;;;;;5074209;28;20500;-65
2022/06/08 05:13:46;;;;;;;1.90;1.03;;;16.30;96.50;;;;;;5055221;28;20504;-67
2022/06/08 05:16:14;;;;;;;5.40;1.27;;;16.40;96.20;;;;;;5062596;28;20476;-65
2022/06/08 05:18:41;;;;;;;2.57;1.63;;;16.50;96.40;;;;;;5071656;28;20523;-66
2022/06/08 05:21:08;;;;;;;2.03;1.13;;;16.60;96.20;;;;;;5070999;28;21002;-65
2022/06/08 05:23:38;;;;;;;4.27;1.47;;;16.60;96.10;;;;;;5072124;28;20436;-65
2022/06/08 05:26:05;;;;;;;2.50;0.90;;;16.80;95.80;;;;;;5072128;28;20447;-65
2022/06/08 05:28:36;;;;;;;3.20;1.63;;;16.90;95.20;;;;;;5068620;28;20796;-64
2022/06/08 05:31:03;;;;;;;3.17;1.40;;;16.90;94.90;;;;;;5072079;28;20436;-65
2022/06/08 05:33:30;;;;;;;2.57;1.10;;;16.90;94.50;;;;;;5071305;28;20448;-65
2022/06/08 05:35:58;;;;;;;5.13;1.90;;;16.90;94.50;;;;;;5071125;28;20444;-66
2022/06/08 05:38:25;;;;;;;2.93;1.83;;;17.00;94.50;;;;;;5071937;28;20432;-65
2022/06/08 05:40:53;;;;;;;4.93;1.67;;;17.00;94.80;;;;;;5071074;28;20493;-65
2022/06/08 05:43:20;;;;;;;3.40;1.30;;;17.00;94.60;;;;;;5066430;28;20889;-65
2022/06/08 05:45:49;;;;;;;4.53;2.73;;;17.00;94.00;;;;;;5071356;28;20841;-65
2022/06/08 05:48:17;;;;;;;3.37;2.10;;;17.00;94.40;;;;;;5070684;28;20444;-65
2022/06/08 05:50:45;;;;;;;3.47;2.13;;;17.00;94.60;;;;;;5071642;28;20972;-65
2022/06/08 05:53:13;;;;;;;2.60;1.77;;;17.00;94.70;;;;;;5070297;28;20865;-65
2022/06/08 05:55:41;;;;;;;3.60;2.17;;;17.00;95.00;;;;;;5071560;28;20835;-66
2022/06/08 05:58:08;;;;;;;4.00;1.97;;;17.00;94.60;;;;;;5067882;28;20959;-65
2022/06/08 06:00:38;;;;;;;4.10;1.60;;;17.10;94.70;;;;;;5069704;28;20435;-65
2022/06/08 06:03:07;;;;;;;2.87;1.50;;;17.10;95.10;;;;;;5071019;28;20532;-65
2022/06/08 06:05:36;;;;;;;2.17;1.17;;;17.20;95.00;;;;;;5070837;28;20432;-65
2022/06/08 06:08:08;;;;;;;2.53;1.20;;;17.30;94.40;;;;;;5068596;28;20436;-65
2022/06/08 06:10:36;;;;;;;3.07;1.33;;;17.30;94.00;;;;;;5069884;28;20436;-65
2022/06/08 06:13:08;;;;;;;4.37;1.40;;;17.40;94.20;;;;;;5071171;28;20443;-65
2022/06/08 06:15:37;;;;;;;2.80;1.77;;;17.40;94.30;;;;;;5071514;28;20914;-65
2022/06/08 06:18:05;;;;;;;2.57;1.60;;;17.50;93.70;;;;;;5066996;28;20460;-65
2022/06/08 06:20:33;;;;;;;3.90;1.13;;;17.50;93.60;;;;;;5063718;28;20437;-65
2022/06/08 06:23:00;;;;;;;1.83;1.00;;;17.50;93.40;;;;;;5065300;28;20476;-66
2022/06/08 06:25:28;;;;;;;2.50;1.10;;;17.60;93.20;;;;;;5070033;28;20784;-65
2022/06/08 06:27:55;;;;;;;1.90;1.00;;;17.60;93.50;;;;;;5068947;28;20445;-65
2022/06/08 06:30:22;;;;;;;3.10;1.43;;;17.70;93.20;;;;;;5071077;28;20436;-65
2022/06/08 06:32:49;;;;;;;2.43;1.10;;;17.70;92.80;;;;;;5069617;28;20433;-65
2022/06/08 06:35:24;;;;;;;2.10;1.20;;;17.80;92.90;;;;;;5070741;28;21069;-66
2022/06/08 06:37:52;;;;;;;2.97;1.60;;;17.80;92.40;;;;;;5062713;28;20433;-65
2022/06/08 06:40:19;;;;;;;3.27;1.60;;;17.90;91.10;;;;;;5070559;28;20446;-65
2022/06/08 06:42:46;;;;;;;3.00;1.20;;;17.90;91.00;;;;;;5067570;28;20446;-66
2022/06/08 06:45:14;;;;;;;3.10;1.20;;;17.90;91.10;;;;;;5071079;28;20439;-65
2022/06/08 06:47:42;;;;;;;2.17;1.10;;;18.00;91.20;;;;;;5072560;28;20442;-65
2022/06/08 06:50:14;;;;;;;2.70;1.13;;;18.10;91.40;;;;;;5072583;28;20439;-65
2022/06/08 06:52:44;;;;;;;2.10;1.27;;;18.10;91.00;;;;;;5072715;28;20444;-65
2022/06/08 06:55:20;;;;;;;2.77;0.90;;;18.20;90.40;;;;;;5072655;28;20486;-65
2022/06/08 06:57:49;;;;;;;3.00;1.23;;;18.20;89.20;;;;;;5051350;28;20445;-65
2022/06/08 07:00:17;;;;;;;1.97;1.10;;;18.30;88.90;;;;;;5052763;28;20429;-65
2022/06/08 07:02:45;;;;;;;5.30;1.90;;;18.30;90.20;;;;;;5052185;28;20444;-65
2022/06/08 07:05:18;;;;;;;2.80;1.40;;;18.40;89.00;;;;;;5052598;28;20803;-65
2022/06/08 07:07:47;;;;;;;3.10;1.00;;;18.50;89.00;;;;;;5056498;28;20440;-65
2022/06/08 07:10:14;;;;;;;2.83;1.10;;;18.60;88.30;;;;;;5056618;28;20429;-65
2022/06/08 07:12:40;;;;;;;2.63;1.10;;;18.60;85.60;;;;;;5056110;28;20535;-65
2022/06/08 07:15:09;;;;;;;2.53;1.00;;;18.70;84.70;;;;;;5056578;28;20480;-65
2022/06/08 07:17:35;;;;;;;2.20;0.90;;;18.80;83.70;;;;;;5056380;28;20465;-65
2022/06/08 07:20:04;;;;;;;2.53;1.03;;;18.80;80.10;;;;;;5060823;28;20798;-65
2022/06/08 07:22:31;;;;;;;5.97;1.00;;;18.90;79.90;;;;;;5067892;28;20443;-66
2022/06/08 07:24:59;;;;;;;2.40;1.13;;;18.90;76.60;;;;;;5065463;28;20905;-65
2022/06/08 07:27:27;;;;;;;4.77;1.20;;;19.00;78.10;;;;;;5063783;28;20519;-66
2022/06/08 07:29:53;;;;;;;4.30;1.20;;;19.00;78.20;;;;;;5068443;28;20525;-65
2022/06/08 07:32:20;;;;;;;3.03;1.00;;;19.10;76.50;;;;;;5066661;28;20511;-65
2022/06/08 07:34:47;;;;;;;6.13;0.90;;;19.20;76.20;;;;;;5065051;28;20476;-65
2022/06/08 07:37:14;;;;;;;3.40;1.30;;;19.20;74.30;;;;;;5064001;28;20440;-65
2022/06/08 07:39:41;;;;;;;1.90;0.70;;;19.20;67.00;;;;;;5066119;28;20910;-65
2022/06/08 07:42:10;;;;;;;3.10;1.00;;;19.30;69.00;;;;;;5064516;28;20821;-65
2022/06/08 07:44:37;;;;;;;5.53;1.87;;;19.30;67.80;;;;;;5062683;28;20464;-66
2022/06/08 07:47:04;;;;;;;2.80;0.90;;;19.40;69.60;;;;;;5066054;28;20482;-65
2022/06/08 07:49:39;;;;;;;3.00;0.90;;;19.40;69.50;;;;;;5064179;28;20445;-65
2022/06/08 07:52:13;;;;;;;3.07;1.03;;;19.50;69.20;;;;;;5065758;28;20522;-65
2022/06/08 07:54:42;;;;;;;5.57;1.07;;;19.70;69.30;;;;;;5066191;28;20483;-69
2022/06/08 07:57:15;;;;;;;2.93;1.10;;;19.70;67.60;;;;;;5062992;28;21011;-65
2022/06/08 07:59:42;;;;;;;4.37;1.20;;;19.80;67.70;;;;;;5062981;28;20857;-65
2022/06/08 08:02:09;;;;;;;2.33;1.17;;;19.80;66.70;;;;;;5064366;28;20803;-65
2022/06/08 08:04:36;;;;;;;2.80;1.10;;;19.90;68.00;;;;;;5065639;28;20901;-65
2022/06/08 08:07:04;;;;;;;4.07;1.27;;;20.00;67.70;;;;;;5063186;28;20520;-65
2022/06/08 08:09:33;;;;;;;3.30;1.00;;;20.10;65.10;;;;;;5065451;28;20428;-65
2022/06/08 08:12:00;;;;;;;3.13;1.10;;;20.10;65.40;;;;;;5063573;28;20433;-65
2022/06/08 08:14:29;;;;;;;2.63;1.17;;;20.10;67.50;;;;;;5064158;28;20428;-65
2022/06/08 08:16:56;;;;;;;2.20;1.20;;;20.20;67.60;;;;;;5064089;28;20824;-65
2022/06/08 08:19:25;;;;;;;3.27;1.10;;;20.40;69.90;;;;;;5064573;28;20511;-65
2022/06/08 08:21:52;;;;;;;4.27;1.47;;;20.50;65.20;;;;;;5063438;28;20436;-65
2022/06/08 08:24:20;;;;;;;3.07;1.20;;;20.60;62.80;;;;;;5065100;28;20518;-65
2022/06/08 08:26:48;;;;;;;3.57;1.13;;;20.70;63.40;;;;;;5066132;28;20458;-65
2022/06/08 08:29:17;;;;;;;10.03;2.30;;;20.80;65.00;;;;;;5062556;28;20432;-65
2022/06/08 08:31:45;;;;;;;2.30;0.90;;;20.90;65.20;;;;;;5068110;28;20502;-65
2022/06/08 08:34:12;;;;;;;2.60;0.80;;;21.00;61.60;;;;;;5065582;28;20436;-65
2022/06/08 08:36:39;;;;;;;3.07;1.10;;;21.10;59.80;;;;;;5062206;28;20480;-65
2022/06/08 08:39:06;;;;;;;4.57;1.10;;;21.20;60.90;;;;;;5065374;28;20450;-65
2022/06/08 08:44:34;;;;;;;3.00;0.67;;;21.40;62.00;;;;;;5062156;28;20481;-65
2022/06/08 08:47:23;;;;;;;2.33;1.20;;;21.60;63.40;;;;;;5064281;28;20433;-65
2022/06/08 08:49:55;;;;;;;2.70;1.20;;;21.70;63.20;;;;;;5065237;28;20434;-66
2022/06/08 08:52:31;;;;;;;4.07;0.83;;;21.80;59.40;;;;;;5065546;28;20445;-65
2022/06/08 08:55:02;;;;;;;3.03;1.10;;;22.00;60.00;;;;;;5073314;28;20570;-65
2022/06/08 08:57:36;;;;;;;10.97;1.30;;;22.10;61.20;;;;;;5073436;28;20898;-65
2022/06/08 09:00:08;;;;;;;2.33;0.93;;;22.20;60.70;;;;;;5069403;28;20523;-65
2022/06/08 09:05:23;;;;;;;3.77;1.47;;;22.40;59.90;;;;;;5062462;28;20423;-65
2022/06/08 09:07:50;;;;;;;3.00;1.57;;;22.50;59.80;;;;;;5061919;28;20441;-65
2022/06/08 09:10:18;;;;;;;3.80;1.50;;;22.50;54.20;;;;;;5065130;28;20516;-65
2022/06/08 09:12:46;;;;;;;4.43;1.33;;;22.60;57.20;;;;;;5064348;28;20437;-65
2022/06/08 09:15:15;;;;;;;3.90;2.17;;;22.70;55.40;;;;;;5064675;28;20499;-65
2022/06/08 09:17:56;;;;;;;2.07;0.90;;;22.70;56.20;;;;;;5062043;28;20510;-65
2022/06/08 09:20:28;;;;;;;2.60;1.40;;;22.70;57.10;;;;;;5065689;28;20450;-66
2022/06/08 09:22:57;;;;;;;3.17;1.03;;;22.90;57.50;;;;;;5065733;28;20777;-65
2022/06/08 09:25:27;;;;;;;2.90;1.20;;;23.00;55.90;;;;;;5061827;28;20443;-66
2022/06/08 09:27:57;;;;;;;2.27;1.20;;;23.10;55.00;;;;;;5072710;28;21010;-65
2022/06/08 09:30:26;;;;;;;3.27;1.40;;;23.10;54.60;;;;;;5072269;28;20903;-66
2022/06/08 09:32:57;;;;;;;2.50;1.10;;;23.20;56.00;;;;;;5063822;28;20436;-65
2022/06/08 09:35:29;;;;;;;3.93;1.47;;;23.30;57.10;;;;;;5064321;28;20481;-65
2022/06/08 09:38:00;;;;;;;7.23;1.10;;;23.60;56.10;;;;;;5064113;28;20434;-67
2022/06/08 09:40:38;;;;;;;3.80;1.00;;;23.60;53.30;;;;;;5068398;28;20439;-65
2022/06/08 09:43:31;;;;;;;1.60;0.90;;;23.70;52.30;;;;;;5066196;28;20436;-66
2022/06/08 09:46:04;;;;;;;1.80;0.90;;;23.70;52.20;;;;;;5062762;28;20495;-65
2022/06/08 09:51:48;;;;;;;2.17;1.10;;;24.00;51.80;;;;;;5060900;28;20923;-65
2022/06/08 09:54:24;;;;;;;2.00;0.90;;;24.10;50.40;;;;;;5050792;28;20476;-66
2022/06/08 09:57:10;;;;;;;2.90;0.90;;;24.20;51.10;;;;;;5060844;28;20984;-65
2022/06/08 09:59:54;;;;;;;6.67;0.97;;;24.30;52.40;;;;;;5061898;28;20492;-66
2022/06/08 10:02:29;;;;;;;3.17;1.07;;;24.30;50.70;;;;;;5063234;28;20478;-65
2022/06/08 10:05:11;;;;;;;2.20;1.10;;;24.30;50.00;;;;;;5062507;28;20814;-65
2022/06/08 10:07:46;;;;;;;2.80;0.90;;;24.30;48.20;;;;;;5064803;28;20446;-66
2022/06/08 10:10:25;;;;;;;3.77;1.10;;;24.30;48.20;;;;;;5062559;28;20438;-65
2022/06/08 10:12:57;;;;;;;2.60;1.03;;;24.40;48.60;;;;;;5062436;28;20443;-65
2022/06/08 10:15:29;;;;;;;2.47;0.83;;;24.50;50.90;;;;;;5064570;28;20678;-66
2022/06/08 10:18:02;;;;;;;2.47;1.00;;;24.60;48.80;;;;;;5064268;28;20481;-65
2022/06/08 10:20:36;;;;;;;3.50;1.07;;;24.70;48.20;;;;;;5060673;28;20898;-65
2022/06/08 10:23:14;;;;;;;2.43;1.20;;;24.70;48.40;;;;;;5063585;28;20933;-65
2022/06/08 10:25:46;;;;;;;2.30;1.10;;;24.70;45.60;;;;;;5062943;28;20437;-66
2022/06/08 10:28:24;;;;;;;4.00;0.93;;;24.60;47.40;;;;;;5062936;28;20442;-66
2022/06/08 10:30:57;;;;;;;1.90;0.80;;;24.80;46.70;;;;;;5062062;28;20427;-65
2022/06/08 10:33:32;;;;;;;3.20;1.17;;;24.80;47.20;;;;;;5061712;28;20805;-65
2022/06/08 10:36:02;;;;;;;3.00;1.10;;;24.90;47.80;;;;;;5062482;28;20497;-65
2022/06/08 10:38:33;;;;;;;3.00;1.10;;;24.90;48.10;;;;;;5063378;28;20516;-65
2022/06/08 10:41:03;;;;;;;2.07;0.87;;;25.10;48.80;;;;;;5061314;28;20515;-66
2022/06/08 10:43:34;;;;;;;4.90;1.00;;;25.20;49.10;;;;;;5061108;28;20518;-66
2022/06/08 10:46:03;;;;;;;3.30;1.07;;;25.30;45.20;;;;;;5063178;28;20441;-65
2022/06/08 10:48:44;;;;;;;2.27;0.93;;;25.50;46.40;;;;;;5067909;28;20431;-66
2022/06/08 10:51:37;;;;;;;3.00;1.07;;;25.60;46.10;;;;;;5067912;28;20420;-65
2022/06/08 10:57:39;;;;;;;1.80;0.80;;;26.00;41.30;;;;;;5060409;28;20802;-65
2022/06/08 11:00:44;;;;;;;4.83;1.20;;;26.00;41.20;;;;;;5062909;28;20470;-66
2022/06/08 11:03:24;;;;;;;3.20;1.00;;;26.10;45.60;;;;;;5059042;28;20498;-66
2022/06/08 11:05:51;;;;;;;2.83;0.93;;;26.20;46.70;;;;;;5064345;28;20932;-65
2022/06/08 11:08:23;;;;;;;4.43;1.20;;;26.30;46.20;;;;;;5059673;28;20436;-67
2022/06/08 11:11:00;;;;;;;2.67;0.90;;;26.50;46.40;;;;;;5060213;28;20444;-66
2022/06/08 11:13:34;;;;;;;6.17;1.00;;;26.50;45.80;;;;;;5066031;28;20432;-67
2022/06/08 11:16:13;;;;;;;2.27;0.80;;;26.50;46.30;;;;;;5055590;28;20468;-66
2022/06/08 11:18:46;;;;;;;2.53;1.10;;;26.70;46.50;;;;;;5061955;28;20836;-66
2022/06/08 11:21:35;;;;;;;4.23;1.00;;;26.80;45.00;;;;;;5059943;28;20445;-66
2022/06/08 11:24:14;;;;;;;3.83;0.90;;;27.00;44.80;;;;;;5066705;28;20455;-65
2022/06/08 11:27:13;;;;;;;5.60;0.90;;;27.10;42.20;;;;;;5063602;28;20526;-65
2022/06/08 11:29:46;;;;;;;7.37;1.30;;;27.10;41.40;;;;;;5058947;28;20443;-65
2022/06/08 11:32:42;;;;;;;4.53;1.10;;;27.20;43.30;;;;;;5063997;28;20472;-65
2022/06/08 11:35:33;;;;;;;2.33;1.10;;;27.30;43.80;;;;;;5045654;28;20444;-66
2022/06/08 11:38:16;;;;;;;2.27;0.90;;;27.40;43.30;;;;;;5061235;28;20906;-66
2022/06/08 11:40:45;;;;;;;4.87;1.30;;;27.60;43.40;;;;;;5059169;28;20428;-65
2022/06/08 11:43:30;;;;;;;2.63;0.93;;;27.70;43.60;;;;;;5061144;28;20810;-65
2022/06/08 11:46:01;;;;;;;3.47;1.10;;;27.90;42.80;;;;;;5063060;28;20443;-67
2022/06/08 11:48:30;;;;;;;2.90;1.00;;;28.00;43.80;;;;;;5059372;28;20432;-66
2022/06/08 11:50:59;;;;;;;3.13;1.20;;;28.20;43.80;;;;;;5061712;28;20437;-66
2022/06/08 11:53:30;;;;;;;2.90;0.90;;;28.30;43.10;;;;;;5061105;28;20471;-66
2022/06/08 11:56:20;;;;;;;3.40;1.47;;;28.40;41.30;;;;;;5063815;28;20491;-66
2022/06/08 11:58:49;;;;;;;2.13;0.93;;;28.50;41.00;;;;;;5062952;28;20957;-65
2022/06/08 12:01:18;;;;;;;3.70;1.40;;;28.50;41.90;;;;;;5064710;28;20445;-65
2022/06/08 12:03:48;;;;;;;5.10;1.20;;;28.50;40.30;;;;;;5067461;28;20534;-65
2022/06/08 12:06:27;;;;;;;2.30;1.23;;;28.50;41.20;;;;;;5064154;28;20806;-65
2022/06/08 12:08:59;;;;;;;2.47;1.20;;;28.50;41.90;;;;;;5066130;28;20450;-65
2022/06/08 12:11:30;;;;;;;2.20;0.90;;;28.50;40.40;;;;;;5062560;28;20841;-65
2022/06/08 12:14:01;;;;;;;2.20;1.00;;;28.50;40.70;;;;;;5063125;28;20428;-66
2022/06/08 12:16:31;;;;;;;2.83;1.30;;;28.60;41.50;;;;;;5064804;28;20483;-66
2022/06/08 12:19:04;;;;;;;1.97;0.90;;;28.60;39.80;;;;;;5064467;28;20478;-65
2022/06/08 12:21:34;;;;;;;3.63;1.13;;;28.60;39.10;;;;;;5062443;28;20533;-65
2022/06/08 12:24:21;;;;;;;6.30;1.77;;;28.50;40.60;;;;;;5064723;28;20440;-65
2022/06/08 12:26:59;;;;;;;2.63;1.30;;;28.50;38.60;;;;;;5064483;28;20946;-65
2022/06/08 12:29:33;;;;;;;4.27;1.50;;;28.40;39.80;;;;;;5068016;28;20475;-66
2022/06/08 12:32:24;;;;;;;2.57;1.17;;;28.30;39.50;;;;;;5065594;28;20451;-65
2022/06/08 12:34:53;;;;;;;2.77;0.90;;;28.20;39.00;;;;;;5062032;28;20440;-66
2022/06/08 12:37:34;;;;;;;5.03;1.17;;;28.20;39.30;;;;;;5063624;28;20974;-65
2022/06/08 12:40:26;;;;;;;6.03;1.53;;;28.20;40.60;;;;;;5062738;28;20492;-65
2022/06/08 12:42:59;;;;;;;3.27;1.90;;;28.20;41.00;;;;;;5063278;28;20445;-65
2022/06/08 12:45:31;;;;;;;3.90;1.40;;;28.40;40.80;;;;;;5063678;28;20440;-66
2022/06/08 12:47:59;;;;;;;2.90;1.57;;;28.50;40.70;;;;;;5064782;28;20469;-66
2022/06/08 12:50:28;;;;;;;4.17;1.37;;;28.60;40.50;;;;;;5064288;28;20778;-66
2022/06/08 12:52:56;;;;;;;2.00;0.90;;;28.80;39.40;;;;;;5063810;28;20546;-66
2022/06/08 12:55:26;;;;;;;2.10;1.03;;;28.80;39.40;;;;;;5064203;28;20435;-65
2022/06/08 12:57:54;;;;;;;1.80;0.80;;;28.80;37.70;;;;;;5063566;28;20917;-65
2022/06/08 13:00:23;;;;;;;4.27;1.23;;;28.70;37.40;;;;;;5064145;28;20436;-65
2022/06/08 13:02:51;;;;;;;3.63;1.50;;;28.50;39.60;;;;;;5062796;28;20444;-65
2022/06/08 13:05:21;;;;;;;2.07;0.90;;;28.50;40.40;;;;;;5064584;28;20444;-66
2022/06/08 13:07:48;;;;;;;3.67;1.73;;;28.30;39.90;;;;;;5062874;28;20443;-65
2022/06/08 13:10:17;;;;;;;2.70;1.20;;;28.20;40.20;;;;;;5064911;28;20535;-65
2022/06/08 13:12:47;;;;;;;6.33;1.20;;;28.20;40.70;;;;;;5061621;28;20437;-65
2022/06/08 13:15:21;;;;;;;2.27;1.00;;;28.10;38.80;;;;;;5062024;28;20522;-65
2022/06/08 13:17:48;;;;;;;2.60;1.70;;;28.00;40.30;;;;;;5062260;28;20483;-65
2022/06/08 13:20:20;;;;;;;2.57;1.23;;;27.90;40.40;;;;;;5062486;28;20443;-65
2022/06/08 13:22:47;;;;;;;3.07;1.00;;;27.80;41.10;;;;;;5065366;28;20444;-65
2022/06/08 13:25:16;;;;;;;4.20;1.30;;;27.80;42.70;;;;;;5062273;28;20447;-66